sensor_id;sensor_type;location;lat;lon;timestamp;temperature;humidity
19110;DHT22;9687;50.836;12.060;2023-08-20T00:00:04;30.10;74.10
19110;DHT22;9687;50.836;12.060;2023-08-20T00:02:34;30.10;74.10
19110;DHT22;9687;50.836;12.060;2023-08-20T00:05:03;30.10;74.10
19110;DHT22;9687;50.836;12.060;2023-08-20T00:07:32;30.10;74.20
19110;DHT22;9687;50.836;12.060;2023-08-20T00:10:00;30.10;74.20
19110;DHT22;9687;50.836;12.060;2023-08-20T00:12:28;30.10;74.30
19110;DHT22;9687;50.836;12.060;2023-08-20T00:14:56;30.00;74.30
19110;DHT22;9687;50.836;12.060;2023-08-20T00:17:30;30.10;74.60
19110;DHT22;9687;50.836;12.060;2023-08-20T00:20:00;30.00;74.60
19110;DHT22;9687;50.836;12.060;2023-08-20T00:22:31;30.00;74.80
19110;DHT22;9687;50.836;12.060;2023-08-20T00:24:59;29.90;74.90
19110;DHT22;9687;50.836;12.060;2023-08-20T00:27:26;29.90;75.00
19110;DHT22;9687;50.836;12.060;2023-08-20T00:29:53;29.90;75.20
19110;DHT22;9687;50.836;12.060;2023-08-20T00:32:20;29.90;75.40
19110;DHT22;9687;50.836;12.060;2023-08-20T00:34:48;29.80;75.40
19110;DHT22;9687;50.836;12.060;2023-08-20T00:37:17;29.80;75.40
19110;DHT22;9687;50.836;12.060;2023-08-20T00:39:45;29.80;75.50
19110;DHT22;9687;50.836;12.060;2023-08-20T00:42:13;29.80;75.60
19110;DHT22;9687;50.836;12.060;2023-08-20T00:44:41;29.80;75.90
19110;DHT22;9687;50.836;12.060;2023-08-20T00:47:10;29.80;75.90
19110;DHT22;9687;50.836;12.060;2023-08-20T00:49:38;29.80;76.00
19110;DHT22;9687;50.836;12.060;2023-08-20T00:52:06;29.80;76.00
19110;DHT22;9687;50.836;12.060;2023-08-20T00:54:38;29.80;76.20
19110;DHT22;9687;50.836;12.060;2023-08-20T00:57:06;29.80;76.40
19110;DHT22;9687;50.836;12.060;2023-08-20T00:59:34;29.80;76.50
19110;DHT22;9687;50.836;12.060;2023-08-20T01:02:02;29.80;76.70
19110;DHT22;9687;50.836;12.060;2023-08-20T01:04:31;29.70;76.70
19110;DHT22;9687;50.836;12.060;2023-08-20T01:07:01;29.70;76.90
19110;DHT22;9687;50.836;12.060;2023-08-20T01:09:31;29.70;77.00
19110;DHT22;9687;50.836;12.060;2023-08-20T01:12:04;29.70;77.10
19110;DHT22;9687;50.836;12.060;2023-08-20T01:14:33;29.70;77.30
19110;DHT22;9687;50.836;12.060;2023-08-20T01:17:00;29.70;77.40
19110;DHT22;9687;50.836;12.060;2023-08-20T01:19:28;29.70;77.50
19110;DHT22;9687;50.836;12.060;2023-08-20T01:21:59;29.60;77.40
19110;DHT22;9687;50.836;12.060;2023-08-20T01:24:31;29.60;77.60
19110;DHT22;9687;50.836;12.060;2023-08-20T01:27:10;29.50;77.80
19110;DHT22;9687;50.836;12.060;2023-08-20T01:29:48;29.50;78.10
19110;DHT22;9687;50.836;12.060;2023-08-20T01:32:15;29.50;78.10
19110;DHT22;9687;50.836;12.060;2023-08-20T01:34:43;29.40;78.00
19110;DHT22;9687;50.836;12.060;2023-08-20T01:37:11;29.40;78.00
19110;DHT22;9687;50.836;12.060;2023-08-20T01:39:39;29.40;78.20
19110;DHT22;9687;50.836;12.060;2023-08-20T01:42:08;29.40;78.50
19110;DHT22;9687;50.836;12.060;2023-08-20T01:44:35;29.30;78.50
19110;DHT22;9687;50.836;12.060;2023-08-20T01:47:04;29.30;78.50
19110;DHT22;9687;50.836;12.060;2023-08-20T01:49:31;29.30;78.60
19110;DHT22;9687;50.836;12.060;2023-08-20T01:51:59;29.30;78.80
19110;DHT22;9687;50.836;12.060;2023-08-20T01:54:26;29.30;78.90
19110;DHT22;9687;50.836;12.060;2023-08-20T01:56:54;29.20;79.00
19110;DHT22;9687;50.836;12.060;2023-08-20T01:59:22;29.20;79.20
19110;DHT22;9687;50.836;12.060;2023-08-20T02:01:49;29.20;79.30
19110;DHT22;9687;50.836;12.060;2023-08-20T02:04:19;29.20;79.50
19110;DHT22;9687;50.836;12.060;2023-08-20T02:06:47;29.20;79.70
19110;DHT22;9687;50.836;12.060;2023-08-20T02:09:14;29.10;79.70
19110;DHT22;9687;50.836;12.060;2023-08-20T02:11:42;29.10;79.90
19110;DHT22;9687;50.836;12.060;2023-08-20T02:14:09;29.10;80.00
19110;DHT22;9687;50.836;12.060;2023-08-20T02:16:37;29.10;80.10
19110;DHT22;9687;50.836;12.060;2023-08-20T02:19:04;29.10;80.10
19110;DHT22;9687;50.836;12.060;2023-08-20T02:21:34;29.10;80.30
19110;DHT22;9687;50.836;12.060;2023-08-20T02:24:02;29.10;80.40
19110;DHT22;9687;50.836;12.060;2023-08-20T02:26:30;29.10;80.50
19110;DHT22;9687;50.836;12.060;2023-08-20T02:28:58;29.00;80.50
19110;DHT22;9687;50.836;12.060;2023-08-20T02:31:25;29.10;80.60
19110;DHT22;9687;50.836;12.060;2023-08-20T02:33:52;29.00;80.70
19110;DHT22;9687;50.836;12.060;2023-08-20T02:36:19;29.00;80.90
19110;DHT22;9687;50.836;12.060;2023-08-20T02:38:49;29.00;81.00
19110;DHT22;9687;50.836;12.060;2023-08-20T02:41:16;29.00;81.10
19110;DHT22;9687;50.836;12.060;2023-08-20T02:43:44;29.00;81.20
19110;DHT22;9687;50.836;12.060;2023-08-20T02:46:11;29.00;81.30
19110;DHT22;9687;50.836;12.060;2023-08-20T02:48:39;29.00;81.40
19110;DHT22;9687;50.836;12.060;2023-08-20T02:51:06;29.00;81.30
19110;DHT22;9687;50.836;12.060;2023-08-20T02:53:33;29.00;81.40
19110;DHT22;9687;50.836;12.060;2023-08-20T02:56:02;29.00;81.40
19110;DHT22;9687;50.836;12.060;2023-08-20T02:58:31;29.00;81.40
19110;DHT22;9687;50.836;12.060;2023-08-20T03:00:58;29.00;81.40
19110;DHT22;9687;50.836;12.060;2023-08-20T03:03:26;29.00;81.70
19110;DHT22;9687;50.836;12.060;2023-08-20T03:05:54;29.00;81.40
19110;DHT22;9687;50.836;12.060;2023-08-20T03:08:21;29.00;81.40
19110;DHT22;9687;50.836;12.060;2023-08-20T03:10:50;29.00;81.50
19110;DHT22;9687;50.836;12.060;2023-08-20T03:13:18;29.00;81.50
19110;DHT22;9687;50.836;12.060;2023-08-20T03:15:46;29.00;81.50
19110;DHT22;9687;50.836;12.060;2023-08-20T03:18:13;28.90;81.40
19110;DHT22;9687;50.836;12.060;2023-08-20T03:20:40;28.90;81.50
19110;DHT22;9687;50.836;12.060;2023-08-20T03:23:07;28.90;81.60
19110;DHT22;9687;50.836;12.060;2023-08-20T03:25:35;28.90;81.70
19110;DHT22;9687;50.836;12.060;2023-08-20T03:28:02;28.90;81.70
19110;DHT22;9687;50.836;12.060;2023-08-20T03:30:31;28.90;81.80
19110;DHT22;9687;50.836;12.060;2023-08-20T03:32:59;28.90;81.80
19110;DHT22;9687;50.836;12.060;2023-08-20T03:35:27;28.90;81.90
19110;DHT22;9687;50.836;12.060;2023-08-20T03:37:54;28.80;81.80
19110;DHT22;9687;50.836;12.060;2023-08-20T03:40:21;28.80;81.80
19110;DHT22;9687;50.836;12.060;2023-08-20T03:42:49;28.80;81.90
19110;DHT22;9687;50.836;12.060;2023-08-20T03:45:16;28.80;82.00
19110;DHT22;9687;50.836;12.060;2023-08-20T03:47:45;28.80;82.10
19110;DHT22;9687;50.836;12.060;2023-08-20T03:50:12;28.70;82.10
19110;DHT22;9687;50.836;12.060;2023-08-20T03:52:40;28.70;82.20
19110;DHT22;9687;50.836;12.060;2023-08-20T03:55:08;28.70;82.20
19110;DHT22;9687;50.836;12.060;2023-08-20T03:57:35;28.70;82.30
19110;DHT22;9687;50.836;12.060;2023-08-20T04:00:03;28.70;82.30
19110;DHT22;9687;50.836;12.060;2023-08-20T04:02:31;28.70;82.40
19110;DHT22;9687;50.836;12.060;2023-08-20T04:05:00;28.70;82.50
19110;DHT22;9687;50.836;12.060;2023-08-20T04:07:29;28.60;82.60
19110;DHT22;9687;50.836;12.060;2023-08-20T04:09:56;28.60;82.70
19110;DHT22;9687;50.836;12.060;2023-08-20T04:12:23;28.60;82.80
19110;DHT22;9687;50.836;12.060;2023-08-20T04:14:51;28.60;82.30
19110;DHT22;9687;50.836;12.060;2023-08-20T04:17:18;28.60;83.10
19110;DHT22;9687;50.836;12.060;2023-08-20T04:19:46;28.60;83.10
19110;DHT22;9687;50.836;12.060;2023-08-20T04:22:15;28.60;83.10
19110;DHT22;9687;50.836;12.060;2023-08-20T04:24:44;28.60;83.10
19110;DHT22;9687;50.836;12.060;2023-08-20T04:27:11;28.60;83.20
19110;DHT22;9687;50.836;12.060;2023-08-20T04:29:39;28.50;83.30
19110;DHT22;9687;50.836;12.060;2023-08-20T04:32:06;28.60;83.60
19110;DHT22;9687;50.836;12.060;2023-08-20T04:34:34;28.50;83.60
19110;DHT22;9687;50.836;12.060;2023-08-20T04:37:01;28.50;83.70
19110;DHT22;9687;50.836;12.060;2023-08-20T04:39:29;28.50;83.90
19110;DHT22;9687;50.836;12.060;2023-08-20T04:41:57;28.50;83.90
19110;DHT22;9687;50.836;12.060;2023-08-20T04:44:26;28.50;84.00
19110;DHT22;9687;50.836;12.060;2023-08-20T04:46:53;28.50;84.20
19110;DHT22;9687;50.836;12.060;2023-08-20T04:49:20;28.50;84.20
19110;DHT22;9687;50.836;12.060;2023-08-20T04:51:48;28.50;84.20
19110;DHT22;9687;50.836;12.060;2023-08-20T04:54:15;28.50;84.30
19110;DHT22;9687;50.836;12.060;2023-08-20T04:56:44;28.50;84.40
19110;DHT22;9687;50.836;12.060;2023-08-20T04:59:11;28.50;84.40
19110;DHT22;9687;50.836;12.060;2023-08-20T05:01:39;28.50;84.50
19110;DHT22;9687;50.836;12.060;2023-08-20T05:04:06;28.40;84.60
19110;DHT22;9687;50.836;12.060;2023-08-20T05:06:34;28.40;84.60
19110;DHT22;9687;50.836;12.060;2023-08-20T05:09:01;28.40;84.80
19110;DHT22;9687;50.836;12.060;2023-08-20T05:11:29;28.40;84.90
19110;DHT22;9687;50.836;12.060;2023-08-20T05:14:00;28.40;84.90
19110;DHT22;9687;50.836;12.060;2023-08-20T05:16:28;28.40;85.00
19110;DHT22;9687;50.836;12.060;2023-08-20T05:18:56;28.40;85.10
19110;DHT22;9687;50.836;12.060;2023-08-20T05:21:23;28.40;85.30
19110;DHT22;9687;50.836;12.060;2023-08-20T05:23:50;28.30;85.30
19110;DHT22;9687;50.836;12.060;2023-08-20T05:26:18;28.30;85.40
19110;DHT22;9687;50.836;12.060;2023-08-20T05:28:45;28.30;85.50
19110;DHT22;9687;50.836;12.060;2023-08-20T05:31:14;28.30;85.70
19110;DHT22;9687;50.836;12.060;2023-08-20T05:33:42;28.30;85.70
19110;DHT22;9687;50.836;12.060;2023-08-20T05:36:09;28.30;85.80
19110;DHT22;9687;50.836;12.060;2023-08-20T05:38:37;28.30;85.90
19110;DHT22;9687;50.836;12.060;2023-08-20T05:41:04;28.30;85.90
19110;DHT22;9687;50.836;12.060;2023-08-20T05:43:31;28.30;86.00
19110;DHT22;9687;50.836;12.060;2023-08-20T05:45:58;28.30;86.20
19110;DHT22;9687;50.836;12.060;2023-08-20T05:48:27;28.20;86.30
19110;DHT22;9687;50.836;12.060;2023-08-20T05:50:55;28.30;86.50
19110;DHT22;9687;50.836;12.060;2023-08-20T05:53:22;28.20;86.40
19110;DHT22;9687;50.836;12.060;2023-08-20T05:55:50;28.20;86.50
19110;DHT22;9687;50.836;12.060;2023-08-20T05:58:17;28.30;86.60
19110;DHT22;9687;50.836;12.060;2023-08-20T06:00:45;28.20;86.60
19110;DHT22;9687;50.836;12.060;2023-08-20T06:03:12;28.20;86.60
19110;DHT22;9687;50.836;12.060;2023-08-20T06:05:43;28.20;86.60
19110;DHT22;9687;50.836;12.060;2023-08-20T06:08:12;28.30;86.80
19110;DHT22;9687;50.836;12.060;2023-08-20T06:10:39;28.20;86.70
19110;DHT22;9687;50.836;12.060;2023-08-20T06:13:06;28.20;86.80
19110;DHT22;9687;50.836;12.060;2023-08-20T06:15:33;28.20;86.80
19110;DHT22;9687;50.836;12.060;2023-08-20T06:18:01;28.20;86.90
19110;DHT22;9687;50.836;12.060;2023-08-20T06:20:28;28.20;86.90
19110;DHT22;9687;50.836;12.060;2023-08-20T06:22:57;28.30;87.10
19110;DHT22;9687;50.836;12.060;2023-08-20T06:25:24;28.20;87.10
19110;DHT22;9687;50.836;12.060;2023-08-20T06:27:52;28.20;87.10
19110;DHT22;9687;50.836;12.060;2023-08-20T06:30:19;28.20;87.10
19110;DHT22;9687;50.836;12.060;2023-08-20T06:32:48;28.20;87.10
19110;DHT22;9687;50.836;12.060;2023-08-20T06:35:16;28.20;87.20
19110;DHT22;9687;50.836;12.060;2023-08-20T06:37:43;28.20;87.20
19110;DHT22;9687;50.836;12.060;2023-08-20T06:40:12;28.20;87.20
19110;DHT22;9687;50.836;12.060;2023-08-20T06:42:39;28.20;87.30
19110;DHT22;9687;50.836;12.060;2023-08-20T06:45:07;28.20;87.30
19110;DHT22;9687;50.836;12.060;2023-08-20T06:47:35;28.20;87.30
19110;DHT22;9687;50.836;12.060;2023-08-20T06:50:02;28.20;87.40
19110;DHT22;9687;50.836;12.060;2023-08-20T06:52:30;28.20;88.10
19110;DHT22;9687;50.836;12.060;2023-08-20T06:54:57;28.20;87.40
19110;DHT22;9687;50.836;12.060;2023-08-20T06:57:26;28.20;87.50
19110;DHT22;9687;50.836;12.060;2023-08-20T06:59:53;28.20;87.50
19110;DHT22;9687;50.836;12.060;2023-08-20T07:02:20;28.10;87.50
19110;DHT22;9687;50.836;12.060;2023-08-20T07:04:47;28.10;87.50
19110;DHT22;9687;50.836;12.060;2023-08-20T07:07:14;28.10;87.60
19110;DHT22;9687;50.836;12.060;2023-08-20T07:09:42;28.10;87.70
19110;DHT22;9687;50.836;12.060;2023-08-20T07:12:09;28.10;87.80
19110;DHT22;9687;50.836;12.060;2023-08-20T07:14:37;28.10;87.90
19110;DHT22;9687;50.836;12.060;2023-08-20T07:17:05;28.10;88.00
19110;DHT22;9687;50.836;12.060;2023-08-20T07:19:33;28.10;88.00
19110;DHT22;9687;50.836;12.060;2023-08-20T07:22:00;28.10;88.20
19110;DHT22;9687;50.836;12.060;2023-08-20T07:24:28;28.10;88.30
19110;DHT22;9687;50.836;12.060;2023-08-20T07:26:56;28.10;88.40
19110;DHT22;9687;50.836;12.060;2023-08-20T07:29:27;28.10;88.40
19110;DHT22;9687;50.836;12.060;2023-08-20T07:31:57;28.10;88.40
19110;DHT22;9687;50.836;12.060;2023-08-20T07:34:24;28.10;88.40
19110;DHT22;9687;50.836;12.060;2023-08-20T07:36:51;28.10;88.40
19110;DHT22;9687;50.836;12.060;2023-08-20T07:39:19;28.10;88.40
19110;DHT22;9687;50.836;12.060;2023-08-20T07:41:48;28.10;88.50
19110;DHT22;9687;50.836;12.060;2023-08-20T07:53:05;28.00;88.30
19110;DHT22;9687;50.836;12.060;2023-08-20T07:55:49;28.10;88.40
19110;DHT22;9687;50.836;12.060;2023-08-20T07:58:16;28.00;88.50
19110;DHT22;9687;50.836;12.060;2023-08-20T08:00:44;28.00;89.30
19110;DHT22;9687;50.836;12.060;2023-08-20T08:03:12;28.00;88.70
19110;DHT22;9687;50.836;12.060;2023-08-20T08:05:40;28.00;88.70
19110;DHT22;9687;50.836;12.060;2023-08-20T08:08:09;27.90;88.80
19110;DHT22;9687;50.836;12.060;2023-08-20T08:10:37;27.90;88.90
19110;DHT22;9687;50.836;12.060;2023-08-20T08:13:05;27.90;88.90
19110;DHT22;9687;50.836;12.060;2023-08-20T08:15:33;27.90;89.10
19110;DHT22;9687;50.836;12.060;2023-08-20T08:18:02;27.90;89.10
19110;DHT22;9687;50.836;12.060;2023-08-20T08:20:30;27.90;89.10
19110;DHT22;9687;50.836;12.060;2023-08-20T08:22:57;27.90;89.10
19110;DHT22;9687;50.836;12.060;2023-08-20T08:25:27;27.90;89.10
19110;DHT22;9687;50.836;12.060;2023-08-20T08:27:56;27.90;89.10
19110;DHT22;9687;50.836;12.060;2023-08-20T08:30:25;27.90;89.10
19110;DHT22;9687;50.836;12.060;2023-08-20T08:32:54;27.90;89.10
19110;DHT22;9687;50.836;12.060;2023-08-20T08:35:22;27.90;89.20
19110;DHT22;9687;50.836;12.060;2023-08-20T08:37:49;27.90;89.20
19110;DHT22;9687;50.836;12.060;2023-08-20T08:40:16;28.00;89.30
19110;DHT22;9687;50.836;12.060;2023-08-20T08:42:46;28.00;89.30
19110;DHT22;9687;50.836;12.060;2023-08-20T08:45:15;28.00;89.20
19110;DHT22;9687;50.836;12.060;2023-08-20T08:47:44;28.00;89.10
19110;DHT22;9687;50.836;12.060;2023-08-20T08:50:11;28.00;89.20
19110;DHT22;9687;50.836;12.060;2023-08-20T08:52:39;28.00;88.90
19110;DHT22;9687;50.836;12.060;2023-08-20T08:55:07;28.00;88.80
19110;DHT22;9687;50.836;12.060;2023-08-20T08:57:34;28.00;88.80
19110;DHT22;9687;50.836;12.060;2023-08-20T09:00:05;28.00;88.90
19110;DHT22;9687;50.836;12.060;2023-08-20T09:02:35;28.00;88.90
19110;DHT22;9687;50.836;12.060;2023-08-20T09:05:02;28.00;88.80
19110;DHT22;9687;50.836;12.060;2023-08-20T09:07:35;28.00;88.80
19110;DHT22;9687;50.836;12.060;2023-08-20T09:10:02;28.00;88.80
19110;DHT22;9687;50.836;12.060;2023-08-20T09:12:30;28.00;88.80
19110;DHT22;9687;50.836;12.060;2023-08-20T09:15:01;28.00;88.80
19110;DHT22;9687;50.836;12.060;2023-08-20T09:17:31;28.00;88.80
19110;DHT22;9687;50.836;12.060;2023-08-20T09:19:59;28.00;88.90
19110;DHT22;9687;50.836;12.060;2023-08-20T09:22:26;28.00;88.80
19110;DHT22;9687;50.836;12.060;2023-08-20T09:24:54;28.00;88.80
19110;DHT22;9687;50.836;12.060;2023-08-20T09:27:21;28.00;88.80
19110;DHT22;9687;50.836;12.060;2023-08-20T09:29:50;28.00;88.80
19110;DHT22;9687;50.836;12.060;2023-08-20T09:32:19;28.00;88.90
19110;DHT22;9687;50.836;12.060;2023-08-20T09:34:48;28.00;89.00
19110;DHT22;9687;50.836;12.060;2023-08-20T09:37:17;28.10;89.40
19110;DHT22;9687;50.836;12.060;2023-08-20T09:39:44;28.20;89.30
19110;DHT22;9687;50.836;12.060;2023-08-20T09:42:12;28.20;89.10
19110;DHT22;9687;50.836;12.060;2023-08-20T09:44:41;28.30;88.80
19110;DHT22;9687;50.836;12.060;2023-08-20T09:47:09;28.30;88.60
19110;DHT22;9687;50.836;12.060;2023-08-20T09:49:38;28.30;88.60
19110;DHT22;9687;50.836;12.060;2023-08-20T09:52:08;28.30;88.60
19110;DHT22;9687;50.836;12.060;2023-08-20T09:54:47;28.30;88.60
19110;DHT22;9687;50.836;12.060;2023-08-20T09:57:23;28.30;88.60
19110;DHT22;9687;50.836;12.060;2023-08-20T09:59:52;28.30;88.60
19110;DHT22;9687;50.836;12.060;2023-08-20T10:02:21;28.30;88.60
19110;DHT22;9687;50.836;12.060;2023-08-20T10:04:48;28.30;88.60
19110;DHT22;9687;50.836;12.060;2023-08-20T10:07:17;28.30;88.60
19110;DHT22;9687;50.836;12.060;2023-08-20T10:09:45;28.40;88.70
19110;DHT22;9687;50.836;12.060;2023-08-20T10:12:13;28.40;88.70
19110;DHT22;9687;50.836;12.060;2023-08-20T10:14:41;28.40;88.70
19110;DHT22;9687;50.836;12.060;2023-08-20T10:17:09;28.50;88.80
19110;DHT22;9687;50.836;12.060;2023-08-20T10:19:39;28.50;88.70
19110;DHT22;9687;50.836;12.060;2023-08-20T10:22:06;28.60;88.80
19110;DHT22;9687;50.836;12.060;2023-08-20T10:24:44;28.70;88.70
19110;DHT22;9687;50.836;12.060;2023-08-20T10:27:23;28.70;88.50
19110;DHT22;9687;50.836;12.060;2023-08-20T10:29:51;28.80;88.40
19110;DHT22;9687;50.836;12.060;2023-08-20T10:32:19;28.90;88.40
19110;DHT22;9687;50.836;12.060;2023-08-20T10:34:49;28.90;88.30
19110;DHT22;9687;50.836;12.060;2023-08-20T10:37:27;28.90;88.10
19110;DHT22;9687;50.836;12.060;2023-08-20T10:39:56;29.00;88.00
19110;DHT22;9687;50.836;12.060;2023-08-20T10:42:26;29.00;87.70
19110;DHT22;9687;50.836;12.060;2023-08-20T10:44:57;29.10;87.70
19110;DHT22;9687;50.836;12.060;2023-08-20T10:47:25;29.20;87.70
19110;DHT22;9687;50.836;12.060;2023-08-20T10:49:53;29.20;87.50
19110;DHT22;9687;50.836;12.060;2023-08-20T10:52:22;29.30;87.20
19110;DHT22;9687;50.836;12.060;2023-08-20T10:54:50;29.30;87.00
19110;DHT22;9687;50.836;12.060;2023-08-20T10:57:19;29.40;86.90
19110;DHT22;9687;50.836;12.060;2023-08-20T10:59:56;29.40;86.90
19110;DHT22;9687;50.836;12.060;2023-08-20T11:02:24;29.60;86.80
19110;DHT22;9687;50.836;12.060;2023-08-20T11:04:53;29.80;87.00
19110;DHT22;9687;50.836;12.060;2023-08-20T11:07:21;30.10;86.60
19110;DHT22;9687;50.836;12.060;2023-08-20T11:09:49;30.60;85.70
19110;DHT22;9687;50.836;12.060;2023-08-20T11:12:22;31.10;84.00
19110;DHT22;9687;50.836;12.060;2023-08-20T11:14:50;31.60;82.80
19110;DHT22;9687;50.836;12.060;2023-08-20T11:17:17;32.00;81.50
19110;DHT22;9687;50.836;12.060;2023-08-20T11:19:44;32.50;80.50
19110;DHT22;9687;50.836;12.060;2023-08-20T11:22:13;33.00;79.50
19110;DHT22;9687;50.836;12.060;2023-08-20T11:24:42;33.50;78.30
19110;DHT22;9687;50.836;12.060;2023-08-20T11:27:10;34.00;76.90
19110;DHT22;9687;50.836;12.060;2023-08-20T11:29:42;34.50;75.50
19110;DHT22;9687;50.836;12.060;2023-08-20T11:32:10;34.60;73.70
19110;DHT22;9687;50.836;12.060;2023-08-20T11:34:40;34.60;72.80
19110;DHT22;9687;50.836;12.060;2023-08-20T11:37:10;34.60;73.00
19110;DHT22;9687;50.836;12.060;2023-08-20T11:39:38;34.80;72.50
19110;DHT22;9687;50.836;12.060;2023-08-20T11:42:05;35.00;71.40
19110;DHT22;9687;50.836;12.060;2023-08-20T11:44:43;35.30;70.40
19110;DHT22;9687;50.836;12.060;2023-08-20T11:47:13;35.40;69.30
19110;DHT22;9687;50.836;12.060;2023-08-20T11:49:41;35.40;68.60
19110;DHT22;9687;50.836;12.060;2023-08-20T11:52:08;35.40;67.90
19110;DHT22;9687;50.836;12.060;2023-08-20T11:54:38;35.30;67.10
19110;DHT22;9687;50.836;12.060;2023-08-20T11:57:07;35.20;67.10
19110;DHT22;9687;50.836;12.060;2023-08-20T11:59:36;34.90;67.50
19110;DHT22;9687;50.836;12.060;2023-08-20T12:02:05;34.80;67.40
19110;DHT22;9687;50.836;12.060;2023-08-20T12:04:37;34.60;67.50
19110;DHT22;9687;50.836;12.060;2023-08-20T12:07:07;34.30;67.80
19110;DHT22;9687;50.836;12.060;2023-08-20T12:09:46;34.10;68.10
19110;DHT22;9687;50.836;12.060;2023-08-20T12:12:15;33.90;68.20
19110;DHT22;9687;50.836;12.060;2023-08-20T12:14:46;33.80;68.90
19110;DHT22;9687;50.836;12.060;2023-08-20T12:17:18;33.60;69.20
19110;DHT22;9687;50.836;12.060;2023-08-20T12:19:45;33.50;69.40
19110;DHT22;9687;50.836;12.060;2023-08-20T12:22:14;33.40;69.30
19110;DHT22;9687;50.836;12.060;2023-08-20T12:24:47;33.20;69.40
19110;DHT22;9687;50.836;12.060;2023-08-20T12:27:18;33.10;69.80
19110;DHT22;9687;50.836;12.060;2023-08-20T12:29:47;33.00;69.80
19110;DHT22;9687;50.836;12.060;2023-08-20T12:32:20;32.90;70.20
19110;DHT22;9687;50.836;12.060;2023-08-20T12:34:48;32.80;70.50
19110;DHT22;9687;50.836;12.060;2023-08-20T12:37:36;32.80;70.70
19110;DHT22;9687;50.836;12.060;2023-08-20T12:40:04;32.60;70.90
19110;DHT22;9687;50.836;12.060;2023-08-20T12:42:44;32.60;71.10
19110;DHT22;9687;50.836;12.060;2023-08-20T12:45:27;32.50;71.30
19110;DHT22;9687;50.836;12.060;2023-08-20T12:47:58;32.40;71.50
19110;DHT22;9687;50.836;12.060;2023-08-20T12:50:25;32.40;71.70
19110;DHT22;9687;50.836;12.060;2023-08-20T12:52:54;32.30;71.80
19110;DHT22;9687;50.836;12.060;2023-08-20T12:55:21;32.20;72.10
19110;DHT22;9687;50.836;12.060;2023-08-20T12:57:52;32.20;72.40
19110;DHT22;9687;50.836;12.060;2023-08-20T13:00:21;32.10;72.30
19110;DHT22;9687;50.836;12.060;2023-08-20T13:02:49;32.10;72.30
19110;DHT22;9687;50.836;12.060;2023-08-20T13:05:19;32.10;72.30
19110;DHT22;9687;50.836;12.060;2023-08-20T13:07:47;32.00;72.40
19110;DHT22;9687;50.836;12.060;2023-08-20T13:10:16;31.90;72.40
19110;DHT22;9687;50.836;12.060;2023-08-20T13:12:44;31.90;72.40
19110;DHT22;9687;50.836;12.060;2023-08-20T13:15:16;31.90;72.60
19110;DHT22;9687;50.836;12.060;2023-08-20T13:17:45;31.90;73.00
19110;DHT22;9687;50.836;12.060;2023-08-20T13:20:13;31.80;73.20
19110;DHT22;9687;50.836;12.060;2023-08-20T13:22:43;31.80;73.40
19110;DHT22;9687;50.836;12.060;2023-08-20T13:25:11;31.90;73.70
19110;DHT22;9687;50.836;12.060;2023-08-20T13:27:38;31.90;74.30
19110;DHT22;9687;50.836;12.060;2023-08-20T13:30:07;31.80;73.50
19110;DHT22;9687;50.836;12.060;2023-08-20T13:32:37;31.80;73.80
19110;DHT22;9687;50.836;12.060;2023-08-20T13:35:05;31.80;73.80
19110;DHT22;9687;50.836;12.060;2023-08-20T13:37:33;31.80;73.90
19110;DHT22;9687;50.836;12.060;2023-08-20T13:40:02;31.80;74.00
19110;DHT22;9687;50.836;12.060;2023-08-20T13:42:37;31.80;74.00
19110;DHT22;9687;50.836;12.060;2023-08-20T13:45:06;31.80;73.90
19110;DHT22;9687;50.836;12.060;2023-08-20T13:47:35;31.90;74.00
19110;DHT22;9687;50.836;12.060;2023-08-20T13:50:03;31.80;73.80
19110;DHT22;9687;50.836;12.060;2023-08-20T13:52:30;31.80;74.00
19110;DHT22;9687;50.836;12.060;2023-08-20T13:55:03;31.80;74.00
19110;DHT22;9687;50.836;12.060;2023-08-20T13:57:31;31.90;74.10
19110;DHT22;9687;50.836;12.060;2023-08-20T14:00:00;31.90;74.10
19110;DHT22;9687;50.836;12.060;2023-08-20T14:02:31;31.90;74.10
19110;DHT22;9687;50.836;12.060;2023-08-20T14:04:59;31.90;74.10
19110;DHT22;9687;50.836;12.060;2023-08-20T14:07:26;31.80;74.10
19110;DHT22;9687;50.836;12.060;2023-08-20T14:09:54;31.90;74.20
19110;DHT22;9687;50.836;12.060;2023-08-20T14:12:23;31.90;74.40
19110;DHT22;9687;50.836;12.060;2023-08-20T14:14:51;31.90;74.40
19110;DHT22;9687;50.836;12.060;2023-08-20T14:17:18;31.90;74.30
19110;DHT22;9687;50.836;12.060;2023-08-20T14:19:46;31.90;74.40
19110;DHT22;9687;50.836;12.060;2023-08-20T14:22:13;31.90;74.50
19110;DHT22;9687;50.836;12.060;2023-08-20T14:24:41;32.00;74.80
19110;DHT22;9687;50.836;12.060;2023-08-20T14:27:08;31.90;74.80
19110;DHT22;9687;50.836;12.060;2023-08-20T14:29:38;31.90;74.90
19110;DHT22;9687;50.836;12.060;2023-08-20T14:32:05;32.00;75.10
19110;DHT22;9687;50.836;12.060;2023-08-20T14:34:33;32.00;75.10
19110;DHT22;9687;50.836;12.060;2023-08-20T14:37:00;32.00;75.10
19110;DHT22;9687;50.836;12.060;2023-08-20T14:39:30;32.00;75.10
19110;DHT22;9687;50.836;12.060;2023-08-20T14:41:59;31.90;75.00
19110;DHT22;9687;50.836;12.060;2023-08-20T14:44:27;31.90;75.00
19110;DHT22;9687;50.836;12.060;2023-08-20T14:46:56;31.90;75.00
19110;DHT22;9687;50.836;12.060;2023-08-20T14:49:24;32.00;75.40
19110;DHT22;9687;50.836;12.060;2023-08-20T14:51:53;31.90;75.30
19110;DHT22;9687;50.836;12.060;2023-08-20T14:54:21;31.90;75.20
19110;DHT22;9687;50.836;12.060;2023-08-20T14:56:49;31.90;75.20
19110;DHT22;9687;50.836;12.060;2023-08-20T14:59:18;31.90;75.20
19110;DHT22;9687;50.836;12.060;2023-08-20T15:01:46;31.90;75.20
19110;DHT22;9687;50.836;12.060;2023-08-20T15:04:16;31.90;75.30
19110;DHT22;9687;50.836;12.060;2023-08-20T15:06:44;31.90;75.30
19110;DHT22;9687;50.836;12.060;2023-08-20T15:09:11;31.90;75.40
19110;DHT22;9687;50.836;12.060;2023-08-20T15:11:41;31.90;75.50
19110;DHT22;9687;50.836;12.060;2023-08-20T15:14:09;31.90;75.50
19110;DHT22;9687;50.836;12.060;2023-08-20T15:16:37;31.90;75.50
19110;DHT22;9687;50.836;12.060;2023-08-20T15:19:04;31.90;75.50
19110;DHT22;9687;50.836;12.060;2023-08-20T15:21:33;31.90;75.40
19110;DHT22;9687;50.836;12.060;2023-08-20T15:24:00;31.90;75.60
19110;DHT22;9687;50.836;12.060;2023-08-20T15:26:29;31.90;75.60
19110;DHT22;9687;50.836;12.060;2023-08-20T15:28:57;31.90;75.60
19110;DHT22;9687;50.836;12.060;2023-08-20T15:31:26;31.90;75.60
19110;DHT22;9687;50.836;12.060;2023-08-20T15:33:54;31.80;75.60
19110;DHT22;9687;50.836;12.060;2023-08-20T15:36:22;31.70;75.60
19110;DHT22;9687;50.836;12.060;2023-08-20T15:38:51;31.70;75.70
19110;DHT22;9687;50.836;12.060;2023-08-20T15:41:18;31.80;75.90
19110;DHT22;9687;50.836;12.060;2023-08-20T15:43:46;31.70;75.90
19110;DHT22;9687;50.836;12.060;2023-08-20T15:46:13;31.70;76.00